This is the latest recevied weather packets stored in our database for station/object DL8GAK-13. If no packets are shown the sender has not sent any weather packets the latest 1 day(s).
| Time | Temp. | Humidity | Pressure | Rain* | Wind** | Luminosity | Snow |
|---|---|---|---|---|---|---|---|
| 1778081388 | 16.11° C | 63% | 1015.3 hPa | - | - | - | - |
| 1778080787 | 16.11° C | 63% | 1015 hPa | - | - | - | - |
| 1778078984 | 19.44° C | 56% | 1014.2 hPa | - | - | - | - |
| 1778078383 | 21.11° C | 56% | 1013.4 hPa | - | - | - | - |
| 1778077782 | 21.11° C | 55% | 1013.5 hPa | - | - | - | - |
| 1778077181 | 21.67° C | 57% | 1013.5 hPa | - | - | - | - |
| 1778075979 | 18.89° C | 65% | 1013.5 hPa | - | - | - | - |
| 1778075378 | 17.78° C | 68% | 1013.5 hPa | - | - | - | - |
| 1778074777 | 17.22° C | 63% | 1013.5 hPa | - | - | - | - |
| 1778074176 | 17.22° C | 60% | 1014.3 hPa | - | - | - | - |
| 1778073575 | 17.78° C | 58% | 1014.1 hPa | - | - | - | - |
| 1778072974 | 17.78° C | 58% | 1013.9 hPa | - | - | - | - |
| 1778072373 | 17.78° C | 58% | 1013.8 hPa | - | - | - | - |
| 1778068767 | 18.33° C | 59% | 1013.3 hPa | - | - | - | - |
| 1778057948 | 16.67° C | 64% | 1014.5 hPa | - | - | - | - |
| 1778055544 | 16.11° C | 66% | 1014.4 hPa | - | - | - | - |
| 1778054342 | 15.56° C | 68% | 1014.5 hPa | - | - | - | - |
| 1778053741 | 15.56° C | 68% | 1014.4 hPa | - | - | - | - |
| 1778053140 | 15.56° C | 68% | 1014.4 hPa | - | - | - | - |
| 1778052539 | 15° C | 68% | 1014.6 hPa | - | - | - | - |
| 1778051938 | 15° C | 69% | 1014.7 hPa | - | - | - | - |
| 1778051337 | 15° C | 69% | 1014.7 hPa | - | - | - | - |
| 1778050736 | 15° C | 69% | 1014.8 hPa | - | - | - | - |
| 1778050135 | 14.44° C | 70% | 1014.9 hPa | - | - | - | - |
| 1778049534 | 14.44° C | 70% | 1014.9 hPa | - | - | - | - |
* Rain since midnight (hover to see other rain measurements)
** Current wind speed in m/s (hover to see current wind gust speed)